sensor_id;sensor_type;location;lat;lon;timestamp;P1;durP1;ratioP1;P2;durP2;ratioP2
16642;SDS011;8435;52.184;5.406;2022-08-05T00:01:36;2.13;;;1.73;;
16642;SDS011;8435;52.184;5.406;2022-08-05T00:04:03;2.50;;;1.98;;
16642;SDS011;8435;52.184;5.406;2022-08-05T00:06:30;5.38;;;2.22;;
16642;SDS011;8435;52.184;5.406;2022-08-05T00:08:57;3.13;;;2.15;;
16642;SDS011;8435;52.184;5.406;2022-08-05T00:11:24;3.17;;;2.00;;
16642;SDS011;8435;52.184;5.406;2022-08-05T00:13:52;5.13;;;1.90;;
16642;SDS011;8435;52.184;5.406;2022-08-05T00:16:19;3.17;;;2.00;;
16642;SDS011;8435;52.184;5.406;2022-08-05T00:18:48;2.97;;;1.90;;
16642;SDS011;8435;52.184;5.406;2022-08-05T00:21:15;3.38;;;1.92;;
16642;SDS011;8435;52.184;5.406;2022-08-05T00:23:43;3.75;;;2.70;;
16642;SDS011;8435;52.184;5.406;2022-08-05T00:26:11;3.90;;;2.30;;
16642;SDS011;8435;52.184;5.406;2022-08-05T00:28:38;5.38;;;2.38;;
16642;SDS011;8435;52.184;5.406;2022-08-05T00:31:05;4.68;;;2.13;;
16642;SDS011;8435;52.184;5.406;2022-08-05T00:33:32;5.82;;;2.20;;
16642;SDS011;8435;52.184;5.406;2022-08-05T00:36:01;3.05;;;1.70;;
16642;SDS011;8435;52.184;5.406;2022-08-05T00:38:28;4.38;;;2.22;;
16642;SDS011;8435;52.184;5.406;2022-08-05T00:40:56;3.30;;;2.33;;
16642;SDS011;8435;52.184;5.406;2022-08-05T00:43:24;2.88;;;2.03;;
16642;SDS011;8435;52.184;5.406;2022-08-05T00:45:50;2.80;;;1.70;;
16642;SDS011;8435;52.184;5.406;2022-08-05T00:48:18;4.25;;;2.08;;
16642;SDS011;8435;52.184;5.406;2022-08-05T00:50:47;3.53;;;1.83;;
16642;SDS011;8435;52.184;5.406;2022-08-05T00:53:17;2.33;;;1.90;;
16642;SDS011;8435;52.184;5.406;2022-08-05T00:55:46;2.65;;;1.67;;
16642;SDS011;8435;52.184;5.406;2022-08-05T00:58:14;3.70;;;1.73;;
16642;SDS011;8435;52.184;5.406;2022-08-05T01:00:42;3.58;;;1.75;;
16642;SDS011;8435;52.184;5.406;2022-08-05T01:03:09;4.35;;;1.80;;
16642;SDS011;8435;52.184;5.406;2022-08-05T01:05:37;4.43;;;1.70;;
16642;SDS011;8435;52.184;5.406;2022-08-05T01:08:04;4.47;;;1.55;;
16642;SDS011;8435;52.184;5.406;2022-08-05T01:10:34;4.63;;;1.60;;
16642;SDS011;8435;52.184;5.406;2022-08-05T01:13:05;3.88;;;1.70;;
16642;SDS011;8435;52.184;5.406;2022-08-05T01:15:38;2.88;;;1.65;;
16642;SDS011;8435;52.184;5.406;2022-08-05T01:18:12;3.15;;;1.60;;
16642;SDS011;8435;52.184;5.406;2022-08-05T01:20:46;3.00;;;1.83;;
16642;SDS011;8435;52.184;5.406;2022-08-05T01:23:20;3.80;;;1.75;;
16642;SDS011;8435;52.184;5.406;2022-08-05T01:26:04;4.10;;;1.63;;
16642;SDS011;8435;52.184;5.406;2022-08-05T01:28:54;2.35;;;1.63;;
16642;SDS011;8435;52.184;5.406;2022-08-05T01:31:27;3.55;;;1.77;;
16642;SDS011;8435;52.184;5.406;2022-08-05T01:33:59;1.67;;;1.58;;
16642;SDS011;8435;52.184;5.406;2022-08-05T01:36:30;1.65;;;1.52;;
16642;SDS011;8435;52.184;5.406;2022-08-05T01:39:00;2.25;;;1.50;;
16642;SDS011;8435;52.184;5.406;2022-08-05T01:41:28;1.83;;;1.38;;
16642;SDS011;8435;52.184;5.406;2022-08-05T01:44:00;2.78;;;1.58;;
16642;SDS011;8435;52.184;5.406;2022-08-05T01:46:31;4.63;;;1.73;;
16642;SDS011;8435;52.184;5.406;2022-08-05T01:48:59;2.90;;;1.65;;
16642;SDS011;8435;52.184;5.406;2022-08-05T01:51:28;2.45;;;1.70;;
16642;SDS011;8435;52.184;5.406;2022-08-05T01:53:58;5.13;;;1.70;;
16642;SDS011;8435;52.184;5.406;2022-08-05T01:56:27;1.88;;;1.67;;
16642;SDS011;8435;52.184;5.406;2022-08-05T01:58:56;4.10;;;1.83;;
16642;SDS011;8435;52.184;5.406;2022-08-05T02:01:27;3.08;;;1.88;;
16642;SDS011;8435;52.184;5.406;2022-08-05T02:03:55;3.47;;;1.90;;
16642;SDS011;8435;52.184;5.406;2022-08-05T02:06:23;3.33;;;1.45;;
16642;SDS011;8435;52.184;5.406;2022-08-05T02:08:50;3.75;;;1.70;;
16642;SDS011;8435;52.184;5.406;2022-08-05T02:11:17;3.22;;;1.60;;
16642;SDS011;8435;52.184;5.406;2022-08-05T02:13:46;4.22;;;1.85;;
16642;SDS011;8435;52.184;5.406;2022-08-05T02:16:20;3.60;;;1.63;;
16642;SDS011;8435;52.184;5.406;2022-08-05T02:18:50;3.35;;;1.90;;
16642;SDS011;8435;52.184;5.406;2022-08-05T02:21:21;2.53;;;1.35;;
16642;SDS011;8435;52.184;5.406;2022-08-05T02:23:52;4.57;;;1.90;;
16642;SDS011;8435;52.184;5.406;2022-08-05T02:26:24;3.83;;;1.50;;
16642;SDS011;8435;52.184;5.406;2022-08-05T02:28:58;3.25;;;1.92;;
16642;SDS011;8435;52.184;5.406;2022-08-05T02:31:28;3.00;;;2.13;;
16642;SDS011;8435;52.184;5.406;2022-08-05T02:33:57;2.70;;;1.55;;
16642;SDS011;8435;52.184;5.406;2022-08-05T02:36:27;2.88;;;1.85;;
16642;SDS011;8435;52.184;5.406;2022-08-05T02:38:57;2.20;;;1.55;;
16642;SDS011;8435;52.184;5.406;2022-08-05T02:41:26;3.70;;;2.08;;
16642;SDS011;8435;52.184;5.406;2022-08-05T02:43:54;2.40;;;1.60;;
16642;SDS011;8435;52.184;5.406;2022-08-05T02:46:23;3.03;;;1.75;;
16642;SDS011;8435;52.184;5.406;2022-08-05T02:48:53;1.85;;;1.65;;
16642;SDS011;8435;52.184;5.406;2022-08-05T02:51:21;4.05;;;1.70;;
16642;SDS011;8435;52.184;5.406;2022-08-05T02:53:48;2.00;;;1.73;;
16642;SDS011;8435;52.184;5.406;2022-08-05T02:56:15;3.20;;;1.88;;
16642;SDS011;8435;52.184;5.406;2022-08-05T02:58:43;2.17;;;1.55;;
16642;SDS011;8435;52.184;5.406;2022-08-05T03:01:12;2.45;;;1.73;;
16642;SDS011;8435;52.184;5.406;2022-08-05T03:03:43;4.43;;;2.15;;
16642;SDS011;8435;52.184;5.406;2022-08-05T03:06:15;2.58;;;1.88;;
16642;SDS011;8435;52.184;5.406;2022-08-05T03:08:43;2.60;;;1.80;;
16642;SDS011;8435;52.184;5.406;2022-08-05T03:11:17;3.50;;;1.85;;
16642;SDS011;8435;52.184;5.406;2022-08-05T03:13:45;2.83;;;1.73;;
16642;SDS011;8435;52.184;5.406;2022-08-05T03:16:12;2.47;;;1.80;;
16642;SDS011;8435;52.184;5.406;2022-08-05T03:18:39;3.67;;;1.80;;
16642;SDS011;8435;52.184;5.406;2022-08-05T03:21:07;2.45;;;1.60;;
16642;SDS011;8435;52.184;5.406;2022-08-05T03:23:38;4.57;;;2.35;;
16642;SDS011;8435;52.184;5.406;2022-08-05T03:26:06;4.53;;;2.10;;
16642;SDS011;8435;52.184;5.406;2022-08-05T03:28:33;3.45;;;1.52;;
16642;SDS011;8435;52.184;5.406;2022-08-05T03:31:01;3.08;;;1.70;;
16642;SDS011;8435;52.184;5.406;2022-08-05T03:33:29;3.88;;;1.83;;
16642;SDS011;8435;52.184;5.406;2022-08-05T03:35:57;2.97;;;1.52;;
16642;SDS011;8435;52.184;5.406;2022-08-05T03:38:25;3.05;;;1.98;;
16642;SDS011;8435;52.184;5.406;2022-08-05T03:40:55;1.90;;;1.67;;
16642;SDS011;8435;52.184;5.406;2022-08-05T03:43:21;2.63;;;1.70;;
16642;SDS011;8435;52.184;5.406;2022-08-05T03:45:49;1.73;;;1.63;;
16642;SDS011;8435;52.184;5.406;2022-08-05T03:48:18;2.60;;;1.65;;
16642;SDS011;8435;52.184;5.406;2022-08-05T03:50:47;3.90;;;2.42;;
16642;SDS011;8435;52.184;5.406;2022-08-05T03:53:20;2.00;;;1.80;;
16642;SDS011;8435;52.184;5.406;2022-08-05T03:55:57;2.20;;;1.70;;
16642;SDS011;8435;52.184;5.406;2022-08-05T03:58:28;2.67;;;1.52;;
16642;SDS011;8435;52.184;5.406;2022-08-05T04:00:58;2.35;;;1.77;;
16642;SDS011;8435;52.184;5.406;2022-08-05T04:03:27;3.88;;;1.90;;
16642;SDS011;8435;52.184;5.406;2022-08-05T04:05:57;3.10;;;1.60;;
16642;SDS011;8435;52.184;5.406;2022-08-05T04:08:24;4.05;;;1.83;;
16642;SDS011;8435;52.184;5.406;2022-08-05T04:10:54;1.50;;;1.40;;
16642;SDS011;8435;52.184;5.406;2022-08-05T04:13:23;2.03;;;1.77;;
16642;SDS011;8435;52.184;5.406;2022-08-05T04:15:50;2.15;;;1.60;;
16642;SDS011;8435;52.184;5.406;2022-08-05T04:18:17;2.50;;;1.90;;
16642;SDS011;8435;52.184;5.406;2022-08-05T04:20:44;4.18;;;2.15;;
16642;SDS011;8435;52.184;5.406;2022-08-05T04:23:18;4.50;;;2.17;;
16642;SDS011;8435;52.184;5.406;2022-08-05T04:25:45;3.20;;;1.83;;
16642;SDS011;8435;52.184;5.406;2022-08-05T04:28:11;2.95;;;1.90;;
16642;SDS011;8435;52.184;5.406;2022-08-05T04:30:39;3.30;;;1.67;;
16642;SDS011;8435;52.184;5.406;2022-08-05T04:33:06;5.68;;;2.00;;
16642;SDS011;8435;52.184;5.406;2022-08-05T04:35:33;3.67;;;2.05;;
16642;SDS011;8435;52.184;5.406;2022-08-05T04:38:00;3.45;;;2.08;;
16642;SDS011;8435;52.184;5.406;2022-08-05T04:40:26;2.28;;;2.05;;
16642;SDS011;8435;52.184;5.406;2022-08-05T04:42:53;3.80;;;2.20;;
16642;SDS011;8435;52.184;5.406;2022-08-05T04:45:20;4.70;;;2.83;;
16642;SDS011;8435;52.184;5.406;2022-08-05T04:47:51;3.78;;;2.50;;
16642;SDS011;8435;52.184;5.406;2022-08-05T04:50:17;5.43;;;2.75;;
16642;SDS011;8435;52.184;5.406;2022-08-05T04:52:47;6.70;;;2.83;;
16642;SDS011;8435;52.184;5.406;2022-08-05T04:55:14;2.65;;;2.45;;
16642;SDS011;8435;52.184;5.406;2022-08-05T04:57:42;4.95;;;2.40;;
16642;SDS011;8435;52.184;5.406;2022-08-05T05:00:11;4.15;;;2.17;;
16642;SDS011;8435;52.184;5.406;2022-08-05T05:02:38;2.60;;;1.90;;
16642;SDS011;8435;52.184;5.406;2022-08-05T05:05:06;2.60;;;2.40;;
16642;SDS011;8435;52.184;5.406;2022-08-05T05:07:33;4.22;;;2.33;;
16642;SDS011;8435;52.184;5.406;2022-08-05T05:10:02;2.17;;;1.98;;
16642;SDS011;8435;52.184;5.406;2022-08-05T05:12:30;2.65;;;1.67;;
16642;SDS011;8435;52.184;5.406;2022-08-05T05:14:57;2.72;;;1.73;;
16642;SDS011;8435;52.184;5.406;2022-08-05T05:17:24;4.35;;;1.92;;
16642;SDS011;8435;52.184;5.406;2022-08-05T05:19:51;2.10;;;1.85;;
16642;SDS011;8435;52.184;5.406;2022-08-05T05:22:21;3.30;;;1.88;;
16642;SDS011;8435;52.184;5.406;2022-08-05T05:24:47;1.88;;;1.70;;
16642;SDS011;8435;52.184;5.406;2022-08-05T05:27:14;2.80;;;1.90;;
16642;SDS011;8435;52.184;5.406;2022-08-05T05:29:41;2.55;;;1.77;;
16642;SDS011;8435;52.184;5.406;2022-08-05T05:32:08;2.50;;;2.00;;
16642;SDS011;8435;52.184;5.406;2022-08-05T05:34:34;2.92;;;1.65;;
16642;SDS011;8435;52.184;5.406;2022-08-05T05:37:01;2.45;;;1.35;;
16642;SDS011;8435;52.184;5.406;2022-08-05T05:39:29;2.97;;;1.80;;
16642;SDS011;8435;52.184;5.406;2022-08-05T05:41:56;2.40;;;1.70;;
16642;SDS011;8435;52.184;5.406;2022-08-05T05:44:23;2.08;;;1.40;;
16642;SDS011;8435;52.184;5.406;2022-08-05T05:46:49;3.17;;;1.52;;
16642;SDS011;8435;52.184;5.406;2022-08-05T05:49:16;2.38;;;1.83;;
16642;SDS011;8435;52.184;5.406;2022-08-05T05:51:43;1.67;;;1.50;;
16642;SDS011;8435;52.184;5.406;2022-08-05T05:54:09;2.00;;;1.55;;
16642;SDS011;8435;52.184;5.406;2022-08-05T05:56:37;2.00;;;1.40;;
16642;SDS011;8435;52.184;5.406;2022-08-05T05:59:05;2.28;;;1.70;;
16642;SDS011;8435;52.184;5.406;2022-08-05T06:01:32;2.17;;;1.58;;
16642;SDS011;8435;52.184;5.406;2022-08-05T06:04:00;2.25;;;1.70;;
16642;SDS011;8435;52.184;5.406;2022-08-05T06:06:26;2.20;;;1.88;;
16642;SDS011;8435;52.184;5.406;2022-08-05T06:08:53;2.88;;;1.73;;
16642;SDS011;8435;52.184;5.406;2022-08-05T06:11:20;2.03;;;1.30;;
16642;SDS011;8435;52.184;5.406;2022-08-05T06:13:50;2.80;;;1.48;;
16642;SDS011;8435;52.184;5.406;2022-08-05T06:16:17;2.13;;;1.50;;
16642;SDS011;8435;52.184;5.406;2022-08-05T06:18:44;1.23;;;1.10;;
16642;SDS011;8435;52.184;5.406;2022-08-05T06:21:11;1.50;;;1.40;;
16642;SDS011;8435;52.184;5.406;2022-08-05T06:23:37;2.13;;;1.17;;
16642;SDS011;8435;52.184;5.406;2022-08-05T06:26:05;2.38;;;1.52;;
16642;SDS011;8435;52.184;5.406;2022-08-05T06:28:32;2.78;;;1.30;;
16642;SDS011;8435;52.184;5.406;2022-08-05T06:31:00;2.15;;;1.27;;
16642;SDS011;8435;52.184;5.406;2022-08-05T06:33:26;1.45;;;1.20;;
16642;SDS011;8435;52.184;5.406;2022-08-05T06:35:53;1.08;;;0.90;;
16642;SDS011;8435;52.184;5.406;2022-08-05T06:38:20;1.17;;;1.08;;
16642;SDS011;8435;52.184;5.406;2022-08-05T06:40:47;1.67;;;1.20;;
16642;SDS011;8435;52.184;5.406;2022-08-05T06:43:13;2.28;;;1.17;;
16642;SDS011;8435;52.184;5.406;2022-08-05T06:45:40;2.03;;;1.10;;
16642;SDS011;8435;52.184;5.406;2022-08-05T06:48:08;1.75;;;1.35;;
16642;SDS011;8435;52.184;5.406;2022-08-05T06:50:35;1.27;;;1.20;;
16642;SDS011;8435;52.184;5.406;2022-08-05T06:53:02;1.23;;;1.00;;
16642;SDS011;8435;52.184;5.406;2022-08-05T06:55:29;0.95;;;0.95;;
16642;SDS011;8435;52.184;5.406;2022-08-05T06:57:55;2.85;;;1.10;;
16642;SDS011;8435;52.184;5.406;2022-08-05T07:00:22;1.20;;;1.10;;
16642;SDS011;8435;52.184;5.406;2022-08-05T07:02:49;2.25;;;1.30;;
16642;SDS011;8435;52.184;5.406;2022-08-05T07:05:18;1.77;;;1.30;;
16642;SDS011;8435;52.184;5.406;2022-08-05T07:07:45;2.45;;;1.20;;
16642;SDS011;8435;52.184;5.406;2022-08-05T07:10:13;1.55;;;1.15;;
16642;SDS011;8435;52.184;5.406;2022-08-05T07:12:40;2.28;;;1.10;;
16642;SDS011;8435;52.184;5.406;2022-08-05T07:15:24;2.15;;;1.10;;
16642;SDS011;8435;52.184;5.406;2022-08-05T07:18:08;1.45;;;1.10;;
16642;SDS011;8435;52.184;5.406;2022-08-05T07:20:36;1.77;;;1.40;;
16642;SDS011;8435;52.184;5.406;2022-08-05T07:23:03;0.98;;;0.98;;
16642;SDS011;8435;52.184;5.406;2022-08-05T07:25:30;1.33;;;1.10;;
16642;SDS011;8435;52.184;5.406;2022-08-05T07:27:57;1.20;;;1.08;;
16642;SDS011;8435;52.184;5.406;2022-08-05T07:30:23;0.80;;;0.80;;
16642;SDS011;8435;52.184;5.406;2022-08-05T07:32:50;0.88;;;0.88;;
16642;SDS011;8435;52.184;5.406;2022-08-05T07:35:17;1.30;;;1.00;;
16642;SDS011;8435;52.184;5.406;2022-08-05T07:37:45;1.27;;;0.70;;
16642;SDS011;8435;52.184;5.406;2022-08-05T07:40:11;1.95;;;0.90;;
16642;SDS011;8435;52.184;5.406;2022-08-05T07:42:38;2.20;;;2.10;;
16642;SDS011;8435;52.184;5.406;2022-08-05T07:45:05;1.40;;;1.30;;
16642;SDS011;8435;52.184;5.406;2022-08-05T07:47:35;1.23;;;1.13;;
16642;SDS011;8435;52.184;5.406;2022-08-05T07:50:01;1.52;;;0.98;;
16642;SDS011;8435;52.184;5.406;2022-08-05T07:52:30;1.65;;;0.80;;
16642;SDS011;8435;52.184;5.406;2022-08-05T07:54:58;1.40;;;0.80;;
16642;SDS011;8435;52.184;5.406;2022-08-05T07:57:25;1.73;;;1.00;;
16642;SDS011;8435;52.184;5.406;2022-08-05T07:59:51;1.33;;;0.93;;
16642;SDS011;8435;52.184;5.406;2022-08-05T08:02:22;1.20;;;1.10;;
16642;SDS011;8435;52.184;5.406;2022-08-05T08:04:50;0.70;;;0.70;;
16642;SDS011;8435;52.184;5.406;2022-08-05T08:07:17;0.70;;;0.70;;
16642;SDS011;8435;52.184;5.406;2022-08-05T08:09:45;0.88;;;0.88;;
16642;SDS011;8435;52.184;5.406;2022-08-05T08:12:14;0.90;;;0.80;;
16642;SDS011;8435;52.184;5.406;2022-08-05T08:14:47;0.90;;;0.80;;
16642;SDS011;8435;52.184;5.406;2022-08-05T08:17:13;0.80;;;0.80;;
16642;SDS011;8435;52.184;5.406;2022-08-05T08:19:41;0.65;;;0.63;;
16642;SDS011;8435;52.184;5.406;2022-08-05T08:22:09;0.93;;;0.88;;
16642;SDS011;8435;52.184;5.406;2022-08-05T08:24:36;1.70;;;0.90;;
16642;SDS011;8435;52.184;5.406;2022-08-05T08:27:03;0.70;;;0.70;;
16642;SDS011;8435;52.184;5.406;2022-08-05T08:29:33;0.88;;;0.88;;
16642;SDS011;8435;52.184;5.406;2022-08-05T08:31:59;0.85;;;0.85;;
16642;SDS011;8435;52.184;5.406;2022-08-05T08:34:26;0.60;;;0.60;;
16642;SDS011;8435;52.184;5.406;2022-08-05T08:36:53;0.73;;;0.52;;
16642;SDS011;8435;52.184;5.406;2022-08-05T08:39:20;2.83;;;0.80;;
16642;SDS011;8435;52.184;5.406;2022-08-05T08:41:48;0.65;;;0.60;;
16642;SDS011;8435;52.184;5.406;2022-08-05T08:44:18;0.90;;;0.90;;
16642;SDS011;8435;52.184;5.406;2022-08-05T08:46:47;0.90;;;0.80;;
16642;SDS011;8435;52.184;5.406;2022-08-05T08:49:14;0.77;;;0.70;;
16642;SDS011;8435;52.184;5.406;2022-08-05T08:51:45;0.60;;;0.60;;
16642;SDS011;8435;52.184;5.406;2022-08-05T08:54:14;0.70;;;0.70;;
16642;SDS011;8435;52.184;5.406;2022-08-05T08:56:43;1.77;;;0.70;;
16642;SDS011;8435;52.184;5.406;2022-08-05T08:59:10;1.63;;;0.88;;
16642;SDS011;8435;52.184;5.406;2022-08-05T09:01:37;1.10;;;0.68;;
16642;SDS011;8435;52.184;5.406;2022-08-05T09:04:07;1.63;;;0.82;;
16642;SDS011;8435;52.184;5.406;2022-08-05T09:06:33;0.70;;;0.70;;
16642;SDS011;8435;52.184;5.406;2022-08-05T09:09:00;2.03;;;0.70;;
16642;SDS011;8435;52.184;5.406;2022-08-05T09:11:28;2.05;;;0.70;;
16642;SDS011;8435;52.184;5.406;2022-08-05T09:13:55;1.42;;;0.75;;
16642;SDS011;8435;52.184;5.406;2022-08-05T09:16:22;1.02;;;0.93;;
16642;SDS011;8435;52.184;5.406;2022-08-05T09:18:49;0.77;;;0.70;;
16642;SDS011;8435;52.184;5.406;2022-08-05T09:21:17;0.88;;;0.63;;
16642;SDS011;8435;52.184;5.406;2022-08-05T09:23:46;0.55;;;0.55;;
16642;SDS011;8435;52.184;5.406;2022-08-05T09:26:32;0.90;;;0.80;;
16642;SDS011;8435;52.184;5.406;2022-08-05T09:28:59;0.90;;;0.82;;
16642;SDS011;8435;52.184;5.406;2022-08-05T09:31:28;0.65;;;0.65;;
16642;SDS011;8435;52.184;5.406;2022-08-05T09:33:56;1.13;;;0.68;;
16642;SDS011;8435;52.184;5.406;2022-08-05T09:36:36;1.35;;;0.80;;
16642;SDS011;8435;52.184;5.406;2022-08-05T09:39:06;1.00;;;0.80;;
16642;SDS011;8435;52.184;5.406;2022-08-05T09:41:40;1.08;;;0.95;;
16642;SDS011;8435;52.184;5.406;2022-08-05T09:47:06;0.70;;;0.70;;
16642;SDS011;8435;52.184;5.406;2022-08-05T09:49:38;1.30;;;0.85;;
16642;SDS011;8435;52.184;5.406;2022-08-05T09:52:17;0.60;;;0.60;;
16642;SDS011;8435;52.184;5.406;2022-08-05T09:54:59;0.80;;;0.73;;
16642;SDS011;8435;52.184;5.406;2022-08-05T09:57:27;0.85;;;0.60;;
16642;SDS011;8435;52.184;5.406;2022-08-05T09:59:56;0.85;;;0.65;;
16642;SDS011;8435;52.184;5.406;2022-08-05T10:02:30;0.50;;;0.50;;
16642;SDS011;8435;52.184;5.406;2022-08-05T10:05:02;0.80;;;0.80;;
16642;SDS011;8435;52.184;5.406;2022-08-05T10:07:42;0.70;;;0.70;;
16642;SDS011;8435;52.184;5.406;2022-08-05T10:10:10;1.35;;;0.80;;
16642;SDS011;8435;52.184;5.406;2022-08-05T10:12:40;0.95;;;0.70;;
16642;SDS011;8435;52.184;5.406;2022-08-05T10:15:12;0.95;;;0.70;;
16642;SDS011;8435;52.184;5.406;2022-08-05T10:17:39;1.35;;;0.70;;
16642;SDS011;8435;52.184;5.406;2022-08-05T10:20:07;0.68;;;0.63;;
16642;SDS011;8435;52.184;5.406;2022-08-05T10:22:36;1.20;;;0.60;;
16642;SDS011;8435;52.184;5.406;2022-08-05T10:25:07;2.17;;;0.60;;
16642;SDS011;8435;52.184;5.406;2022-08-05T10:27:34;0.60;;;0.60;;
16642;SDS011;8435;52.184;5.406;2022-08-05T10:30:01;2.40;;;0.70;;
16642;SDS011;8435;52.184;5.406;2022-08-05T10:32:30;0.98;;;0.70;;
16642;SDS011;8435;52.184;5.406;2022-08-05T10:34:57;0.95;;;0.65;;
16642;SDS011;8435;52.184;5.406;2022-08-05T10:37:25;1.48;;;0.88;;
16642;SDS011;8435;52.184;5.406;2022-08-05T10:39:54;0.43;;;0.40;;
16642;SDS011;8435;52.184;5.406;2022-08-05T10:42:24;0.60;;;0.50;;
16642;SDS011;8435;52.184;5.406;2022-08-05T10:44:53;0.40;;;0.40;;
16642;SDS011;8435;52.184;5.406;2022-08-05T10:47:24;1.45;;;0.65;;
16642;SDS011;8435;52.184;5.406;2022-08-05T10:50:01;0.40;;;0.40;;
16642;SDS011;8435;52.184;5.406;2022-08-05T10:52:37;0.47;;;0.47;;
16642;SDS011;8435;52.184;5.406;2022-08-05T10:55:06;1.63;;;0.63;;
16642;SDS011;8435;52.184;5.406;2022-08-05T10:57:36;0.82;;;0.60;;
16642;SDS011;8435;52.184;5.406;2022-08-05T11:00:06;0.95;;;0.65;;
16642;SDS011;8435;52.184;5.406;2022-08-05T11:02:37;0.50;;;0.50;;
16642;SDS011;8435;52.184;5.406;2022-08-05T11:05:18;1.10;;;0.60;;
16642;SDS011;8435;52.184;5.406;2022-08-05T11:07:57;0.50;;;0.50;;
16642;SDS011;8435;52.184;5.406;2022-08-05T11:10:25;1.15;;;0.60;;
16642;SDS011;8435;52.184;5.406;2022-08-05T11:12:54;0.55;;;0.55;;
16642;SDS011;8435;52.184;5.406;2022-08-05T11:15:22;0.50;;;0.50;;
16642;SDS011;8435;52.184;5.406;2022-08-05T11:17:51;0.50;;;0.50;;
16642;SDS011;8435;52.184;5.406;2022-08-05T11:20:35;0.50;;;0.50;;
16642;SDS011;8435;52.184;5.406;2022-08-05T11:26:00;0.60;;;0.60;;
16642;SDS011;8435;52.184;5.406;2022-08-05T11:28:39;0.60;;;0.57;;
16642;SDS011;8435;52.184;5.406;2022-08-05T11:31:24;0.60;;;0.43;;
16642;SDS011;8435;52.184;5.406;2022-08-05T11:33:59;0.60;;;0.60;;
16642;SDS011;8435;52.184;5.406;2022-08-05T11:36:43;0.50;;;0.50;;
16642;SDS011;8435;52.184;5.406;2022-08-05T11:39:12;1.20;;;0.70;;
16642;SDS011;8435;52.184;5.406;2022-08-05T11:41:40;0.85;;;0.77;;
16642;SDS011;8435;52.184;5.406;2022-08-05T11:44:16;1.00;;;0.57;;
16642;SDS011;8435;52.184;5.406;2022-08-05T11:46:46;1.33;;;0.65;;
16642;SDS011;8435;52.184;5.406;2022-08-05T11:49:15;1.33;;;0.50;;
16642;SDS011;8435;52.184;5.406;2022-08-05T11:51:44;0.40;;;0.40;;
16642;SDS011;8435;52.184;5.406;2022-08-05T11:54:12;0.85;;;0.68;;
16642;SDS011;8435;52.184;5.406;2022-08-05T11:56:43;0.68;;;0.47;;
16642;SDS011;8435;52.184;5.406;2022-08-05T11:59:11;0.77;;;0.52;;
16642;SDS011;8435;52.184;5.406;2022-08-05T12:01:52;0.55;;;0.55;;
16642;SDS011;8435;52.184;5.406;2022-08-05T12:04:19;0.57;;;0.57;;
16642;SDS011;8435;52.184;5.406;2022-08-05T12:06:46;0.93;;;0.60;;
16642;SDS011;8435;52.184;5.406;2022-08-05T12:09:14;1.25;;;0.80;;
16642;SDS011;8435;52.184;5.406;2022-08-05T12:11:42;0.50;;;0.50;;
16642;SDS011;8435;52.184;5.406;2022-08-05T12:14:09;0.50;;;0.50;;
16642;SDS011;8435;52.184;5.406;2022-08-05T12:16:37;1.98;;;0.50;;
16642;SDS011;8435;52.184;5.406;2022-08-05T12:19:07;0.80;;;0.65;;
16642;SDS011;8435;52.184;5.406;2022-08-05T12:21:41;0.60;;;0.50;;
16642;SDS011;8435;52.184;5.406;2022-08-05T12:24:11;0.60;;;0.60;;
16642;SDS011;8435;52.184;5.406;2022-08-05T12:26:40;1.13;;;0.50;;
16642;SDS011;8435;52.184;5.406;2022-08-05T12:29:09;0.70;;;0.70;;
16642;SDS011;8435;52.184;5.406;2022-08-05T12:31:37;1.65;;;0.60;;
16642;SDS011;8435;52.184;5.406;2022-08-05T12:34:06;1.75;;;0.70;;
16642;SDS011;8435;52.184;5.406;2022-08-05T12:36:34;1.27;;;0.65;;
16642;SDS011;8435;52.184;5.406;2022-08-05T12:39:02;0.88;;;0.70;;
16642;SDS011;8435;52.184;5.406;2022-08-05T12:41:32;0.93;;;0.80;;
16642;SDS011;8435;52.184;5.406;2022-08-05T12:44:00;2.28;;;0.73;;
16642;SDS011;8435;52.184;5.406;2022-08-05T12:46:28;1.05;;;0.68;;
16642;SDS011;8435;52.184;5.406;2022-08-05T12:48:59;0.55;;;0.50;;
16642;SDS011;8435;52.184;5.406;2022-08-05T12:51:29;1.70;;;0.80;;
16642;SDS011;8435;52.184;5.406;2022-08-05T12:53:57;2.35;;;0.65;;
16642;SDS011;8435;52.184;5.406;2022-08-05T12:56:25;1.23;;;0.57;;
16642;SDS011;8435;52.184;5.406;2022-08-05T12:59:11;0.63;;;0.60;;
16642;SDS011;8435;52.184;5.406;2022-08-05T13:01:40;1.20;;;0.95;;
16642;SDS011;8435;52.184;5.406;2022-08-05T13:04:07;1.75;;;0.70;;
16642;SDS011;8435;52.184;5.406;2022-08-05T13:06:40;1.23;;;0.70;;
16642;SDS011;8435;52.184;5.406;2022-08-05T13:09:08;1.58;;;1.05;;
16642;SDS011;8435;52.184;5.406;2022-08-05T13:11:40;1.05;;;0.88;;
16642;SDS011;8435;52.184;5.406;2022-08-05T13:14:09;0.52;;;0.50;;
16642;SDS011;8435;52.184;5.406;2022-08-05T13:16:43;0.60;;;0.60;;
16642;SDS011;8435;52.184;5.406;2022-08-05T13:19:19;2.05;;;0.70;;
16642;SDS011;8435;52.184;5.406;2022-08-05T13:21:52;0.50;;;0.50;;
16642;SDS011;8435;52.184;5.406;2022-08-05T13:24:19;0.57;;;0.57;;
16642;SDS011;8435;52.184;5.406;2022-08-05T13:26:52;1.17;;;0.60;;
16642;SDS011;8435;52.184;5.406;2022-08-05T13:29:19;1.45;;;0.60;;
16642;SDS011;8435;52.184;5.406;2022-08-05T13:31:48;0.75;;;0.75;;
16642;SDS011;8435;52.184;5.406;2022-08-05T13:34:15;1.00;;;0.73;;
16642;SDS011;8435;52.184;5.406;2022-08-05T13:36:42;2.78;;;0.70;;
16642;SDS011;8435;52.184;5.406;2022-08-05T13:39:11;1.13;;;0.60;;
16642;SDS011;8435;52.184;5.406;2022-08-05T13:41:38;0.90;;;0.57;;
16642;SDS011;8435;52.184;5.406;2022-08-05T13:44:05;0.52;;;0.52;;
16642;SDS011;8435;52.184;5.406;2022-08-05T13:46:32;0.85;;;0.50;;
16642;SDS011;8435;52.184;5.406;2022-08-05T13:48:59;1.08;;;0.63;;
16642;SDS011;8435;52.184;5.406;2022-08-05T13:51:30;2.08;;;0.65;;
16642;SDS011;8435;52.184;5.406;2022-08-05T13:53:57;1.55;;;0.80;;
16642;SDS011;8435;52.184;5.406;2022-08-05T13:56:30;1.27;;;0.75;;
16642;SDS011;8435;52.184;5.406;2022-08-05T13:58:56;0.80;;;0.80;;
16642;SDS011;8435;52.184;5.406;2022-08-05T14:01:23;0.70;;;0.70;;
16642;SDS011;8435;52.184;5.406;2022-08-05T14:03:50;1.08;;;0.98;;
16642;SDS011;8435;52.184;5.406;2022-08-05T14:06:34;2.67;;;2.47;;
16642;SDS011;8435;52.184;5.406;2022-08-05T14:09:02;1.75;;;1.65;;
16642;SDS011;8435;52.184;5.406;2022-08-05T14:11:30;1.60;;;1.50;;
16642;SDS011;8435;52.184;5.406;2022-08-05T14:13:57;1.27;;;1.10;;
16642;SDS011;8435;52.184;5.406;2022-08-05T14:16:27;1.10;;;0.90;;
16642;SDS011;8435;52.184;5.406;2022-08-05T14:18:54;0.60;;;0.60;;
16642;SDS011;8435;52.184;5.406;2022-08-05T14:21:21;1.02;;;0.80;;
16642;SDS011;8435;52.184;5.406;2022-08-05T14:23:47;0.55;;;0.50;;
16642;SDS011;8435;52.184;5.406;2022-08-05T14:26:14;1.38;;;0.55;;
16642;SDS011;8435;52.184;5.406;2022-08-05T14:28:42;0.52;;;0.52;;
16642;SDS011;8435;52.184;5.406;2022-08-05T14:31:09;1.05;;;0.60;;
16642;SDS011;8435;52.184;5.406;2022-08-05T14:33:36;0.82;;;0.82;;
16642;SDS011;8435;52.184;5.406;2022-08-05T14:36:03;0.80;;;0.50;;
16642;SDS011;8435;52.184;5.406;2022-08-05T14:38:30;0.63;;;0.60;;
16642;SDS011;8435;52.184;5.406;2022-08-05T14:40:56;0.57;;;0.40;;
16642;SDS011;8435;52.184;5.406;2022-08-05T14:43:23;0.50;;;0.47;;
16642;SDS011;8435;52.184;5.406;2022-08-05T14:45:52;0.98;;;0.70;;
16642;SDS011;8435;52.184;5.406;2022-08-05T14:48:18;1.65;;;0.77;;
16642;SDS011;8435;52.184;5.406;2022-08-05T14:50:45;1.48;;;0.70;;
16642;SDS011;8435;52.184;5.406;2022-08-05T14:53:12;0.63;;;0.50;;
16642;SDS011;8435;52.184;5.406;2022-08-05T14:55:39;0.65;;;0.65;;
16642;SDS011;8435;52.184;5.406;2022-08-05T14:58:06;3.72;;;0.80;;
16642;SDS011;8435;52.184;5.406;2022-08-05T15:00:34;1.75;;;0.70;;
16642;SDS011;8435;52.184;5.406;2022-08-05T15:03:02;1.25;;;0.77;;
16642;SDS011;8435;52.184;5.406;2022-08-05T15:05:30;1.52;;;0.73;;
16642;SDS011;8435;52.184;5.406;2022-08-05T15:07:57;1.77;;;0.70;;
16642;SDS011;8435;52.184;5.406;2022-08-05T15:10:23;2.20;;;1.08;;
16642;SDS011;8435;52.184;5.406;2022-08-05T15:12:50;0.95;;;0.57;;
16642;SDS011;8435;52.184;5.406;2022-08-05T15:15:17;0.95;;;0.65;;
16642;SDS011;8435;52.184;5.406;2022-08-05T15:17:44;2.15;;;0.70;;